sensor_id;sensor_type;location;lat;lon;timestamp;pressure;altitude;pressure_sealevel;temperature;humidity
57990;BME280;58373;51.824;5.564;2022-11-11T00:00:30;102734.63;;;8.67;91.85
57990;BME280;58373;51.824;5.564;2022-11-11T00:02:57;102738.38;;;8.60;92.93
57990;BME280;58373;51.824;5.564;2022-11-11T00:05:23;102747.59;;;8.66;92.54
57990;BME280;58373;51.824;5.564;2022-11-11T00:07:52;102744.38;;;8.61;92.64
57990;BME280;58373;51.824;5.564;2022-11-11T00:10:18;102759.00;;;8.62;92.54
57990;BME280;58373;51.824;5.564;2022-11-11T00:12:43;102762.53;;;8.59;92.98
57990;BME280;58373;51.824;5.564;2022-11-11T00:15:08;102756.78;;;8.52;93.47
57990;BME280;58373;51.824;5.564;2022-11-11T00:17:34;102773.59;;;8.63;93.95
57990;BME280;58373;51.824;5.564;2022-11-11T00:20:18;102771.22;;;8.58;93.67
57990;BME280;58373;51.824;5.564;2022-11-11T00:23:02;102778.88;;;8.60;93.69
57990;BME280;58373;51.824;5.564;2022-11-11T00:25:50;102773.59;;;8.63;94.05
57990;BME280;58373;51.824;5.564;2022-11-11T00:28:17;102777.88;;;8.64;94.64
57990;BME280;58373;51.824;5.564;2022-11-11T00:30:42;102770.25;;;8.61;94.56
57990;BME280;58373;51.824;5.564;2022-11-11T00:33:07;102768.44;;;8.63;94.36
57990;BME280;58373;51.824;5.564;2022-11-11T00:35:33;102773.34;;;8.69;94.30
57990;BME280;58373;51.824;5.564;2022-11-11T00:38:16;102787.03;;;8.71;94.19
57990;BME280;58373;51.824;5.564;2022-11-11T00:41:08;102781.03;;;8.70;94.51
57990;BME280;58373;51.824;5.564;2022-11-11T00:43:35;102787.88;;;8.71;94.72
57990;BME280;58373;51.824;5.564;2022-11-11T00:46:00;102775.03;;;8.70;94.86
57990;BME280;58373;51.824;5.564;2022-11-11T00:48:44;102781.03;;;8.70;94.91
57990;BME280;58373;51.824;5.564;2022-11-11T00:51:28;102776.50;;;8.75;95.04
57990;BME280;58373;51.824;5.564;2022-11-11T00:53:54;102783.44;;;8.75;94.97
57990;BME280;58373;51.824;5.564;2022-11-11T00:56:20;102785.00;;;8.79;94.85
57990;BME280;58373;51.824;5.564;2022-11-11T00:58:46;102765.41;;;8.73;95.24
57990;BME280;58373;51.824;5.564;2022-11-11T01:01:11;102783.16;;;8.81;94.66
57990;BME280;58373;51.824;5.564;2022-11-11T01:03:37;102777.22;;;8.79;94.83
57990;BME280;58373;51.824;5.564;2022-11-11T01:06:03;102784.84;;;8.82;95.15
57990;BME280;58373;51.824;5.564;2022-11-11T01:08:30;102783.06;;;8.84;95.45
57990;BME280;58373;51.824;5.564;2022-11-11T01:10:56;102772.69;;;8.84;95.21
57990;BME280;58373;51.824;5.564;2022-11-11T01:13:23;102786.41;;;8.86;95.50
57990;BME280;58373;51.824;5.564;2022-11-11T01:15:51;102795.06;;;8.85;95.40
57990;BME280;58373;51.824;5.564;2022-11-11T01:18:21;102791.56;;;8.86;95.50
57990;BME280;58373;51.824;5.564;2022-11-11T01:20:47;102782.06;;;8.87;95.88
57990;BME280;58373;51.824;5.564;2022-11-11T01:23:21;102779.56;;;8.85;95.66
57990;BME280;58373;51.824;5.564;2022-11-11T01:25:46;102758.84;;;8.85;95.58
57990;BME280;58373;51.824;5.564;2022-11-11T01:28:12;102752.13;;;8.81;95.67
57990;BME280;58373;51.824;5.564;2022-11-11T01:30:37;102745.00;;;8.86;95.80
57990;BME280;58373;51.824;5.564;2022-11-11T01:33:03;102744.34;;;8.81;95.91
57990;BME280;58373;51.824;5.564;2022-11-11T01:35:29;102747.72;;;8.83;96.11
57990;BME280;58373;51.824;5.564;2022-11-11T01:37:56;102750.06;;;8.89;96.14
57990;BME280;58373;51.824;5.564;2022-11-11T01:40:21;102743.06;;;8.91;96.22
57990;BME280;58373;51.824;5.564;2022-11-11T01:42:52;102751.56;;;8.93;96.03
57990;BME280;58373;51.824;5.564;2022-11-11T01:45:58;102754.97;;;8.95;95.92
57990;BME280;58373;51.824;5.564;2022-11-11T01:48:42;102757.59;;;8.94;95.59
57990;BME280;58373;51.824;5.564;2022-11-11T01:54:36;102756.63;;;8.96;96.30
57990;BME280;58373;51.824;5.564;2022-11-11T01:59:54;102747.97;;;8.97;95.97
57990;BME280;58373;51.824;5.564;2022-11-11T02:02:36;102746.28;;;8.96;96.50
57990;BME280;58373;51.824;5.564;2022-11-11T02:05:05;102753.00;;;9.00;96.12
57990;BME280;58373;51.824;5.564;2022-11-11T02:07:52;102752.28;;;8.97;96.85
57990;BME280;58373;51.824;5.564;2022-11-11T02:10:21;102753.00;;;9.00;96.04
57990;BME280;58373;51.824;5.564;2022-11-11T02:12:47;102749.63;;;8.98;96.41
57990;BME280;58373;51.824;5.564;2022-11-11T02:15:31;102751.19;;;9.02;95.65
57990;BME280;58373;51.824;5.564;2022-11-11T02:17:57;102746.97;;;9.00;96.46
57990;BME280;58373;51.824;5.564;2022-11-11T02:20:28;102751.19;;;9.02;96.55
57990;BME280;58373;51.824;5.564;2022-11-11T02:23:27;102747.69;;;9.03;96.61
57990;BME280;58373;51.824;5.564;2022-11-11T02:25:55;102740.13;;;8.99;96.78
57990;BME280;58373;51.824;5.564;2022-11-11T02:28:22;102751.19;;;9.02;97.14
57990;BME280;58373;51.824;5.564;2022-11-11T02:30:49;102740.84;;;9.02;96.67
57990;BME280;58373;51.824;5.564;2022-11-11T02:33:15;102742.38;;;9.07;96.04
57990;BME280;58373;51.824;5.564;2022-11-11T02:35:43;102728.66;;;9.04;96.25
57990;BME280;58373;51.824;5.564;2022-11-11T02:38:09;102728.66;;;9.04;96.83
57990;BME280;58373;51.824;5.564;2022-11-11T02:40:43;102732.03;;;9.07;96.31
57990;BME280;58373;51.824;5.564;2022-11-11T02:43:29;102732.22;;;9.02;96.22
57990;BME280;58373;51.824;5.564;2022-11-11T02:45:55;102735.66;;;9.02;96.91
57990;BME280;58373;51.824;5.564;2022-11-11T02:48:21;102745.25;;;9.00;96.99
57990;BME280;58373;51.824;5.564;2022-11-11T02:50:46;102748.72;;;8.99;96.67
57990;BME280;58373;51.824;5.564;2022-11-11T02:53:12;102742.03;;;8.95;96.73
57990;BME280;58373;51.824;5.564;2022-11-11T02:55:37;102747.84;;;9.00;96.71
57990;BME280;58373;51.824;5.564;2022-11-11T02:58:03;102741.09;;;8.96;96.95
57990;BME280;58373;51.824;5.564;2022-11-11T03:00:29;102740.94;;;8.99;97.22
57990;BME280;58373;51.824;5.564;2022-11-11T03:02:54;102741.09;;;8.96;97.16
57990;BME280;58373;51.824;5.564;2022-11-11T03:05:19;102749.50;;;9.01;96.77
57990;BME280;58373;51.824;5.564;2022-11-11T03:07:45;102729.00;;;8.97;96.83
57990;BME280;58373;51.824;5.564;2022-11-11T03:10:11;102745.09;;;9.03;96.85
57990;BME280;58373;51.824;5.564;2022-11-11T03:12:36;102724.53;;;9.00;96.77
57990;BME280;58373;51.824;5.564;2022-11-11T03:15:02;102728.00;;;8.99;97.12
57990;BME280;58373;51.824;5.564;2022-11-11T03:17:28;102722.78;;;9.01;96.73
57990;BME280;58373;51.824;5.564;2022-11-11T03:20:07;102736.56;;;9.01;96.42
57990;BME280;58373;51.824;5.564;2022-11-11T03:23:08;102731.50;;;8.98;96.72
57990;BME280;58373;51.824;5.564;2022-11-11T03:25:39;102737.59;;;8.97;96.82
57990;BME280;58373;51.824;5.564;2022-11-11T03:28:10;102735.94;;;8.96;96.75
57990;BME280;58373;51.824;5.564;2022-11-11T03:30:44;102734.25;;;8.95;96.70
57990;BME280;58373;51.824;5.564;2022-11-11T03:33:10;102741.19;;;8.95;96.78
57990;BME280;58373;51.824;5.564;2022-11-11T03:35:36;102746.41;;;8.93;96.77
57990;BME280;58373;51.824;5.564;2022-11-11T03:38:04;102736.06;;;8.93;96.61
57990;BME280;58373;51.824;5.564;2022-11-11T03:40:53;102741.22;;;8.93;96.94
57990;BME280;58373;51.824;5.564;2022-11-11T03:43:25;102743.16;;;8.88;97.16
57990;BME280;58373;51.824;5.564;2022-11-11T03:45:52;102745.72;;;8.90;96.71
57990;BME280;58373;51.824;5.564;2022-11-11T03:48:18;102741.38;;;8.90;96.79
57990;BME280;58373;51.824;5.564;2022-11-11T03:50:45;102745.00;;;8.86;96.94
57990;BME280;58373;51.824;5.564;2022-11-11T03:53:12;102748.34;;;8.88;97.01
57990;BME280;58373;51.824;5.564;2022-11-11T03:55:39;102745.72;;;8.90;96.70
57990;BME280;58373;51.824;5.564;2022-11-11T03:58:04;102754.44;;;8.87;96.74
57990;BME280;58373;51.824;5.564;2022-11-11T04:00:29;102760.53;;;8.86;96.99
57990;BME280;58373;51.824;5.564;2022-11-11T04:03:21;102760.53;;;8.86;96.77
57990;BME280;58373;51.824;5.564;2022-11-11T04:06:08;102765.84;;;8.83;97.03
57990;BME280;58373;51.824;5.564;2022-11-11T04:08:52;102764.03;;;8.85;96.88
57990;BME280;58373;51.824;5.564;2022-11-11T04:11:41;102771.03;;;8.83;96.90
57990;BME280;58373;51.824;5.564;2022-11-11T04:14:10;102774.38;;;8.85;96.81
57990;BME280;58373;51.824;5.564;2022-11-11T04:16:54;102768.47;;;8.82;96.74
57990;BME280;58373;51.824;5.564;2022-11-11T04:19:20;102776.31;;;8.80;97.00
57990;BME280;58373;51.824;5.564;2022-11-11T04:22:04;102780.56;;;8.81;96.73
57990;BME280;58373;51.824;5.564;2022-11-11T04:24:30;102785.81;;;8.80;96.88
57990;BME280;58373;51.824;5.564;2022-11-11T04:27:16;102771.13;;;8.80;96.47
57990;BME280;58373;51.824;5.564;2022-11-11T04:29:42;102777.22;;;8.79;96.90
57990;BME280;58373;51.824;5.564;2022-11-11T04:32:10;102774.63;;;8.79;96.75
57990;BME280;58373;51.824;5.564;2022-11-11T04:35:01;102769.47;;;8.79;96.87
57990;BME280;58373;51.824;5.564;2022-11-11T04:37:31;102762.72;;;8.75;96.57
57990;BME280;58373;51.824;5.564;2022-11-11T04:39:57;102765.31;;;8.75;96.91
57990;BME280;58373;51.824;5.564;2022-11-11T04:42:40;102767.84;;;8.76;96.69
57990;BME280;58373;51.824;5.564;2022-11-11T04:45:08;102767.13;;;8.73;96.41
57990;BME280;58373;51.824;5.564;2022-11-11T04:48:10;102774.75;;;8.76;97.24
57990;BME280;58373;51.824;5.564;2022-11-11T04:50:41;102770.56;;;8.73;96.84
57990;BME280;58373;51.824;5.564;2022-11-11T04:53:11;102773.34;;;8.69;97.05
57990;BME280;58373;51.824;5.564;2022-11-11T04:55:38;102768.16;;;8.69;96.91
57990;BME280;58373;51.824;5.564;2022-11-11T04:58:26;102763.00;;;8.69;96.55
57990;BME280;58373;51.824;5.564;2022-11-11T05:00:51;102766.22;;;8.74;96.60
57990;BME280;58373;51.824;5.564;2022-11-11T05:03:17;102772.34;;;8.71;96.56
57990;BME280;58373;51.824;5.564;2022-11-11T05:06:03;102771.41;;;8.74;96.25
57990;BME280;58373;51.824;5.564;2022-11-11T05:08:49;102769.72;;;8.73;96.32
57990;BME280;58373;51.824;5.564;2022-11-11T05:11:22;102763.09;;;8.66;96.96
57990;BME280;58373;51.824;5.564;2022-11-11T05:13:48;102765.50;;;8.70;96.83
57990;BME280;58373;51.824;5.564;2022-11-11T05:16:37;102770.75;;;8.69;96.74
57990;BME280;58373;51.824;5.564;2022-11-11T05:19:22;102750.25;;;8.64;96.48
57990;BME280;58373;51.824;5.564;2022-11-11T05:22:32;102756.97;;;8.68;96.67
57990;BME280;58373;51.824;5.564;2022-11-11T05:24:59;102757.94;;;8.66;96.53
57990;BME280;58373;51.824;5.564;2022-11-11T05:27:43;102756.25;;;8.65;96.70
57990;BME280;58373;51.824;5.564;2022-11-11T05:30:11;102753.75;;;8.63;96.74
57990;BME280;58373;51.824;5.564;2022-11-11T05:32:37;102749.69;;;8.58;96.56
57990;BME280;58373;51.824;5.564;2022-11-11T05:35:04;102753.03;;;8.60;96.57
57990;BME280;58373;51.824;5.564;2022-11-11T05:37:30;102746.19;;;8.59;96.57
57990;BME280;58373;51.824;5.564;2022-11-11T05:39:55;102740.44;;;8.52;96.98
57990;BME280;58373;51.824;5.564;2022-11-11T05:42:21;102750.50;;;8.58;97.11
57990;BME280;58373;51.824;5.564;2022-11-11T05:44:46;102752.34;;;8.56;96.98
57990;BME280;58373;51.824;5.564;2022-11-11T05:47:11;102755.00;;;8.55;96.52
57990;BME280;58373;51.824;5.564;2022-11-11T05:49:37;102748.13;;;8.54;96.92
57990;BME280;58373;51.824;5.564;2022-11-11T05:52:03;102749.94;;;8.51;96.82
57990;BME280;58373;51.824;5.564;2022-11-11T05:54:29;102733.97;;;8.42;96.91
57990;BME280;58373;51.824;5.564;2022-11-11T05:56:55;102750.19;;;8.45;97.28
57990;BME280;58373;51.824;5.564;2022-11-11T05:59:20;102759.69;;;8.45;97.19
57990;BME280;58373;51.824;5.564;2022-11-11T06:01:46;102744.44;;;8.39;96.83
57990;BME280;58373;51.824;5.564;2022-11-11T06:04:11;102758.97;;;8.41;97.05
57990;BME280;58373;51.824;5.564;2022-11-11T06:06:37;102755.63;;;8.39;97.26
57990;BME280;58373;51.824;5.564;2022-11-11T06:09:03;102759.16;;;8.37;96.79
57990;BME280;58373;51.824;5.564;2022-11-11T06:11:29;102762.69;;;8.34;96.83
57990;BME280;58373;51.824;5.564;2022-11-11T06:13:55;102767.88;;;8.34;97.30
57990;BME280;58373;51.824;5.564;2022-11-11T06:16:21;102777.28;;;8.35;96.84
57990;BME280;58373;51.824;5.564;2022-11-11T06:18:47;102773.03;;;8.34;97.41
57990;BME280;58373;51.824;5.564;2022-11-11T06:21:12;102776.53;;;8.33;97.50
57990;BME280;58373;51.824;5.564;2022-11-11T06:23:38;102786.97;;;8.30;96.93
57990;BME280;58373;51.824;5.564;2022-11-11T06:26:04;102787.81;;;8.31;97.05
57990;BME280;58373;51.824;5.564;2022-11-11T06:28:41;102777.69;;;8.26;97.09
57990;BME280;58373;51.824;5.564;2022-11-11T06:31:08;102776.06;;;8.23;96.69
57990;BME280;58373;51.824;5.564;2022-11-11T06:33:35;102782.06;;;8.24;97.09
57990;BME280;58373;51.824;5.564;2022-11-11T06:36:01;102785.66;;;8.20;96.89
57990;BME280;58373;51.824;5.564;2022-11-11T06:38:26;102792.66;;;8.18;96.94
57990;BME280;58373;51.824;5.564;2022-11-11T06:40:52;102806.47;;;8.17;97.01
57990;BME280;58373;51.824;5.564;2022-11-11T06:43:17;102801.41;;;8.14;97.13
57990;BME280;58373;51.824;5.564;2022-11-11T06:45:44;102809.19;;;8.14;97.13
57990;BME280;58373;51.824;5.564;2022-11-11T06:48:09;102798.91;;;8.12;97.07
57990;BME280;58373;51.824;5.564;2022-11-11T06:50:35;102809.25;;;8.12;97.10
57990;BME280;58373;51.824;5.564;2022-11-11T06:53:07;102797.47;;;8.05;97.32
57990;BME280;58373;51.824;5.564;2022-11-11T06:55:33;102813.81;;;8.06;97.13
57990;BME280;58373;51.824;5.564;2022-11-11T06:58:11;102808.53;;;8.09;96.76
57990;BME280;58373;51.824;5.564;2022-11-11T07:00:37;102818.06;;;8.07;97.43
57990;BME280;58373;51.824;5.564;2022-11-11T07:03:04;102810.47;;;8.04;97.19
57990;BME280;58373;51.824;5.564;2022-11-11T07:05:29;102805.41;;;8.01;97.06
57990;BME280;58373;51.824;5.564;2022-11-11T07:07:55;102798.78;;;7.93;97.59
57990;BME280;58373;51.824;5.564;2022-11-11T07:10:21;102819.31;;;7.96;97.70
57990;BME280;58373;51.824;5.564;2022-11-11T07:12:46;102811.88;;;7.89;97.46
57990;BME280;58373;51.824;5.564;2022-11-11T07:15:12;102817.78;;;7.92;97.46
57990;BME280;58373;51.824;5.564;2022-11-11T07:17:37;102811.16;;;7.85;97.54
57990;BME280;58373;51.824;5.564;2022-11-11T07:20:03;102839.41;;;7.90;97.14
57990;BME280;58373;51.824;5.564;2022-11-11T07:22:28;102828.47;;;7.83;97.48
57990;BME280;58373;51.824;5.564;2022-11-11T07:24:54;102841.22;;;7.88;97.59
57990;BME280;58373;51.824;5.564;2022-11-11T07:27:19;102843.06;;;7.84;97.26
57990;BME280;58373;51.824;5.564;2022-11-11T07:29:44;102859.38;;;7.86;97.48
57990;BME280;58373;51.824;5.564;2022-11-11T07:32:10;102850.94;;;7.81;97.50
57990;BME280;58373;51.824;5.564;2022-11-11T07:34:35;102857.03;;;7.79;97.59
57990;BME280;58373;51.824;5.564;2022-11-11T07:37:01;102857.00;;;7.80;97.73
57990;BME280;58373;51.824;5.564;2022-11-11T07:39:26;102852.00;;;7.76;97.82
57990;BME280;58373;51.824;5.564;2022-11-11T07:41:51;102864.75;;;7.80;97.64
57990;BME280;58373;51.824;5.564;2022-11-11T07:44:17;102870.03;;;7.77;98.19
57990;BME280;58373;51.824;5.564;2022-11-11T07:46:42;102871.69;;;7.78;97.65
57990;BME280;58373;51.824;5.564;2022-11-11T07:49:07;102872.59;;;7.77;98.14
57990;BME280;58373;51.824;5.564;2022-11-11T07:51:33;102882.88;;;7.79;98.25
57990;BME280;58373;51.824;5.564;2022-11-11T07:53:58;102878.53;;;7.79;97.39
57990;BME280;58373;51.824;5.564;2022-11-11T07:56:24;102880.41;;;7.76;98.34
57990;BME280;58373;51.824;5.564;2022-11-11T07:58:49;102891.53;;;7.78;97.73
57990;BME280;58373;51.824;5.564;2022-11-11T08:01:14;102894.19;;;7.76;97.78
57990;BME280;58373;51.824;5.564;2022-11-11T08:03:40;102888.16;;;7.76;97.86
57990;BME280;58373;51.824;5.564;2022-11-11T08:06:20;102897.53;;;7.78;98.02
57990;BME280;58373;51.824;5.564;2022-11-11T08:08:46;102888.28;;;7.72;97.59
57990;BME280;58373;51.824;5.564;2022-11-11T08:11:13;102900.06;;;7.80;97.27
57990;BME280;58373;51.824;5.564;2022-11-11T08:13:38;102897.53;;;7.78;97.57
57990;BME280;58373;51.824;5.564;2022-11-11T08:16:11;102908.69;;;7.80;97.14
57990;BME280;58373;51.824;5.564;2022-11-11T08:18:37;102919.00;;;7.80;97.58
57990;BME280;58373;51.824;5.564;2022-11-11T08:21:04;102912.94;;;7.81;97.04
57990;BME280;58373;51.824;5.564;2022-11-11T08:23:30;102915.53;;;7.81;96.66
57990;BME280;58373;51.824;5.564;2022-11-11T08:26:02;102906.94;;;7.81;96.96
57990;BME280;58373;51.824;5.564;2022-11-11T08:28:30;102919.88;;;7.79;96.76
57990;BME280;58373;51.824;5.564;2022-11-11T08:31:00;102929.22;;;7.83;96.54
57990;BME280;58373;51.824;5.564;2022-11-11T08:33:26;102924.94;;;7.82;96.56
57990;BME280;58373;51.824;5.564;2022-11-11T08:35:52;102921.47;;;7.83;96.29
57990;BME280;58373;51.824;5.564;2022-11-11T08:38:19;102914.50;;;7.85;95.68
57990;BME280;58373;51.824;5.564;2022-11-11T08:40:45;102931.69;;;7.86;95.83
57990;BME280;58373;51.824;5.564;2022-11-11T08:43:10;102921.25;;;7.89;96.09
57990;BME280;58373;51.824;5.564;2022-11-11T08:45:35;102925.63;;;7.87;95.95
57990;BME280;58373;51.824;5.564;2022-11-11T08:48:01;102924.50;;;7.94;95.91
57990;BME280;58373;51.824;5.564;2022-11-11T08:50:26;102934.84;;;7.94;95.92
57990;BME280;58373;51.824;5.564;2022-11-11T08:52:52;102923.50;;;7.98;95.92
57990;BME280;58373;51.824;5.564;2022-11-11T08:55:18;102924.28;;;8.01;95.76
57990;BME280;58373;51.824;5.564;2022-11-11T08:57:44;102924.19;;;8.02;95.43
57990;BME280;58373;51.824;5.564;2022-11-11T09:00:10;102932.69;;;8.06;95.78
57990;BME280;58373;51.824;5.564;2022-11-11T09:02:36;102923.94;;;8.10;95.80
57990;BME280;58373;51.824;5.564;2022-11-11T09:05:02;102926.34;;;8.14;95.20
57990;BME280;58373;51.824;5.564;2022-11-11T09:07:28;102920.31;;;8.14;95.31
57990;BME280;58373;51.824;5.564;2022-11-11T09:09:53;102927.06;;;8.18;94.77
57990;BME280;58373;51.824;5.564;2022-11-11T09:12:19;102927.06;;;8.18;95.21
57990;BME280;58373;51.824;5.564;2022-11-11T09:14:44;102932.13;;;8.21;95.21
57990;BME280;58373;51.824;5.564;2022-11-11T09:17:10;102930.25;;;8.24;94.86
57990;BME280;58373;51.824;5.564;2022-11-11T09:19:35;102941.19;;;8.31;94.62
57990;BME280;58373;51.824;5.564;2022-11-11T09:22:01;102942.78;;;8.35;94.78
57990;BME280;58373;51.824;5.564;2022-11-11T09:24:26;102929.78;;;8.38;94.59
57990;BME280;58373;51.824;5.564;2022-11-11T09:26:51;102938.06;;;8.46;94.89
57990;BME280;58373;51.824;5.564;2022-11-11T09:29:17;102934.47;;;8.50;94.47
57990;BME280;58373;51.824;5.564;2022-11-11T09:31:44;102929.06;;;8.57;94.64
57990;BME280;58373;51.824;5.564;2022-11-11T09:34:09;102936.56;;;8.63;94.20
57990;BME280;58373;51.824;5.564;2022-11-11T09:36:35;102937.22;;;8.68;93.77
57990;BME280;58373;51.824;5.564;2022-11-11T09:39:00;102933.72;;;8.69;93.44
57990;BME280;58373;51.824;5.564;2022-11-11T09:52:21;102948.50;;;8.87;93.14
57990;BME280;58373;51.824;5.564;2022-11-11T09:55:17;102948.25;;;8.93;93.14
57990;BME280;58373;51.824;5.564;2022-11-11T09:57:51;102946.34;;;8.98;92.65
57990;BME280;58373;51.824;5.564;2022-11-11T10:00:21;102942.72;;;9.02;92.32
57990;BME280;58373;51.824;5.564;2022-11-11T10:02:52;102940.78;;;9.08;92.09
57990;BME280;58373;51.824;5.564;2022-11-11T10:05:46;102947.50;;;9.12;92.29
57990;BME280;58373;51.824;5.564;2022-11-11T10:10:47;102935.63;;;9.08;92.20
57990;BME280;58373;51.824;5.564;2022-11-11T10:13:21;102959.16;;;9.22;92.06
57990;BME280;58373;51.824;5.564;2022-11-11T10:18:30;102959.63;;;9.31;91.38
57990;BME280;58373;51.824;5.564;2022-11-11T10:21:04;102956.84;;;9.36;91.38
57990;BME280;58373;51.824;5.564;2022-11-11T10:23:36;102963.56;;;9.40;91.22
57990;BME280;58373;51.824;5.564;2022-11-11T10:28:50;102950.88;;;9.54;91.26
57990;BME280;58373;51.824;5.564;2022-11-11T10:31:20;102952.56;;;9.55;90.96
57990;BME280;58373;51.824;5.564;2022-11-11T10:33:50;102957.47;;;9.62;91.30
57990;BME280;58373;51.824;5.564;2022-11-11T10:36:19;102954.69;;;9.66;90.82
57990;BME280;58373;51.824;5.564;2022-11-11T10:39:02;102962.38;;;9.68;90.30
57990;BME280;58373;51.824;5.564;2022-11-11T10:41:38;102972.47;;;9.74;89.53
57990;BME280;58373;51.824;5.564;2022-11-11T10:44:21;102965.50;;;9.76;89.46
57990;BME280;58373;51.824;5.564;2022-11-11T10:47:00;102972.34;;;9.77;89.72
57990;BME280;58373;51.824;5.564;2022-11-11T10:49:31;102963.66;;;9.78;89.02
57990;BME280;58373;51.824;5.564;2022-11-11T10:52:07;102960.03;;;9.82;89.51
57990;BME280;58373;51.824;5.564;2022-11-11T10:54:46;102949.69;;;9.82;89.26
57990;BME280;58373;51.824;5.564;2022-11-11T11:00:07;102965.59;;;9.93;88.55
57990;BME280;58373;51.824;5.564;2022-11-11T11:02:44;102957.81;;;9.93;88.88
57990;BME280;58373;51.824;5.564;2022-11-11T11:05:54;102957.66;;;9.96;88.91
57990;BME280;58373;51.824;5.564;2022-11-11T11:08:25;102960.22;;;9.98;88.77
57990;BME280;58373;51.824;5.564;2022-11-11T11:10:57;102971.34;;;10.00;88.69
57990;BME280;58373;51.824;5.564;2022-11-11T11:13:33;102971.25;;;10.01;88.68
57990;BME280;58373;51.824;5.564;2022-11-11T11:16:08;102959.94;;;10.04;87.92
57990;BME280;58373;51.824;5.564;2022-11-11T11:18:37;102959.78;;;10.07;87.91
57990;BME280;58373;51.824;5.564;2022-11-11T11:21:05;102965.81;;;10.07;87.76
57990;BME280;58373;51.824;5.564;2022-11-11T11:23:44;102957.94;;;10.09;87.70
57990;BME280;58373;51.824;5.564;2022-11-11T11:26:12;102958.84;;;10.08;87.91
57990;BME280;58373;51.824;5.564;2022-11-11T11:28:58;102955.31;;;10.10;87.61
57990;BME280;58373;51.824;5.564;2022-11-11T11:31:36;102950.81;;;10.14;88.00
57990;BME280;58373;51.824;5.564;2022-11-11T11:34:02;102956.81;;;10.15;88.22
57990;BME280;58373;51.824;5.564;2022-11-11T11:36:28;102963.72;;;10.16;87.27
57990;BME280;58373;51.824;5.564;2022-11-11T11:38:53;102960.06;;;10.20;87.43
57990;BME280;58373;51.824;5.564;2022-11-11T11:41:38;102949.56;;;10.23;87.80
57990;BME280;58373;51.824;5.564;2022-11-11T11:44:30;102949.44;;;10.26;86.82
57990;BME280;58373;51.824;5.564;2022-11-11T11:49:51;102945.66;;;10.33;86.92
57990;BME280;58373;51.824;5.564;2022-11-11T11:52:53;102959.25;;;10.38;87.08
57990;BME280;58373;51.824;5.564;2022-11-11T11:55:27;102952.94;;;10.44;86.28
57990;BME280;58373;51.824;5.564;2022-11-11T12:01:06;102942.81;;;10.56;86.62
57990;BME280;58373;51.824;5.564;2022-11-11T12:06:42;102938.84;;;10.67;85.75
57990;BME280;58373;51.824;5.564;2022-11-11T12:12:23;102937.50;;;10.77;85.68
57990;BME280;58373;51.824;5.564;2022-11-11T12:20:30;102939.66;;;10.86;83.76
57990;BME280;58373;51.824;5.564;2022-11-11T12:23:10;102930.81;;;10.90;83.98
57990;BME280;58373;51.824;5.564;2022-11-11T12:26:17;102935.84;;;10.93;83.94
57990;BME280;58373;51.824;5.564;2022-11-11T12:42:07;102931.25;;;11.15;83.11
57990;BME280;58373;51.824;5.564;2022-11-11T12:47:38;102920.72;;;11.19;82.71
57990;BME280;58373;51.824;5.564;2022-11-11T12:50:20;102919.00;;;11.17;82.61
57990;BME280;58373;51.824;5.564;2022-11-11T12:55:39;102906.50;;;11.26;82.65
57990;BME280;58373;51.824;5.564;2022-11-11T13:00:41;102914.59;;;11.37;82.33
57990;BME280;58373;51.824;5.564;2022-11-11T13:03:21;102920.44;;;11.40;81.45
57990;BME280;58373;51.824;5.564;2022-11-11T13:06:55;102917.78;;;11.42;82.76
57990;BME280;58373;51.824;5.564;2022-11-11T13:09:27;102915.78;;;11.47;81.74
57990;BME280;58373;51.824;5.564;2022-11-11T13:12:00;102910.59;;;11.47;80.84
57990;BME280;58373;51.824;5.564;2022-11-11T13:17:05;102904.47;;;11.48;80.44
57990;BME280;58373;51.824;5.564;2022-11-11T13:19:44;102912.28;;;11.48;79.67
57990;BME280;58373;51.824;5.564;2022-11-11T13:24:42;102909.66;;;11.48;80.56
57990;BME280;58373;51.824;5.564;2022-11-11T13:27:38;102902.03;;;11.45;80.00
57990;BME280;58373;51.824;5.564;2022-11-11T13:30:12;102910.41;;;11.50;79.58
57990;BME280;58373;51.824;5.564;2022-11-11T13:32:59;102913.63;;;11.55;80.17
57990;BME280;58373;51.824;5.564;2022-11-11T13:35:35;102910.09;;;11.56;80.05
57990;BME280;58373;51.824;5.564;2022-11-11T13:38:01;102913.75;;;11.52;79.93
57990;BME280;58373;51.824;5.564;2022-11-11T13:43:02;102911.94;;;11.54;79.97
57990;BME280;58373;51.824;5.564;2022-11-11T13:45:32;102908.41;;;11.55;79.10
57990;BME280;58373;51.824;5.564;2022-11-11T13:47:59;102900.94;;;11.49;79.78
57990;BME280;58373;51.824;5.564;2022-11-11T13:50:31;102905.06;;;11.53;80.40
57990;BME280;58373;51.824;5.564;2022-11-11T13:53:02;102913.38;;;11.60;79.77
57990;BME280;58373;51.824;5.564;2022-11-11T13:57:53;102909.94;;;11.59;79.17
57990;BME280;58373;51.824;5.564;2022-11-11T14:00:23;102915.16;;;11.59;78.90
57990;BME280;58373;51.824;5.564;2022-11-11T14:13:56;102907.69;;;11.53;78.80
57990;BME280;58373;51.824;5.564;2022-11-11T14:21:49;102906.75;;;11.54;79.51
57990;BME280;58373;51.824;5.564;2022-11-11T14:24:45;102909.94;;;11.59;79.57
57990;BME280;58373;51.824;5.564;2022-11-11T14:29:45;102912.88;;;11.53;78.46
57990;BME280;58373;51.824;5.564;2022-11-11T14:40:11;102907.13;;;11.47;78.65
57990;BME280;58373;51.824;5.564;2022-11-11T14:47:56;102909.06;;;11.43;78.99
57990;BME280;58373;51.824;5.564;2022-11-11T14:52:58;102900.50;;;11.41;79.44
57990;BME280;58373;51.824;5.564;2022-11-11T14:55:29;102902.19;;;11.42;78.99
57990;BME280;58373;51.824;5.564;2022-11-11T14:58:00;102902.34;;;11.39;78.49
57990;BME280;58373;51.824;5.564;2022-11-11T15:00:45;102900.66;;;11.38;78.83
57990;BME280;58373;51.824;5.564;2022-11-11T15:09:10;102899.22;;;11.32;79.64
57990;BME280;58373;51.824;5.564;2022-11-11T15:14:05;102910.38;;;11.34;80.29
57990;BME280;58373;51.824;5.564;2022-11-11T15:20:34;102916.72;;;11.29;80.29
57990;BME280;58373;51.824;5.564;2022-11-11T15:27:54;102918.88;;;11.21;80.01